Terminal Aerodrome Forecast
Issued by NWS

Home | Current Version | Previous Version | Text Only | Print | Product List | Glossary On
Versions: 1 2 3 4 5 6 7 8 9 10 11 12 13 14 15 16 17 18 19 20 21 22 23 24 25 26 27 28 29 30
000
FTPA31 PHFO 310500
TAFKOA
TAF
PHKO 310540Z 3106/0106 23009KT P6SM SCT050
     FM310800 04011KT P6SM FEW050
     FM311200 VRB04KT P6SM SKC
     FM312000 20011KT P6SM SCT050
     FM010300 22011KT P6SM VCSH SCT030 BKN050=

USA.gov is the U.S. government's official web portal to all federal, state and local government web resources and services.